Time;durP1;ratioP1;P1;durP2;ratioP2;P2;SDS_P1;SDS_P2;PMS_P1;PMS_P2;Temp;Humidity;BMP_temperature;BMP_pressure;BME280_temperature;BME280_humidity;BME280_pressure;Samples;Min_cycle;Max_cycle;Signal;HPM_P1;HPM_P2
2023/01/04 00:01:34;;;;;;;3.60;1.90;;;5.40;99.90;;;;;;4996205;28;20533;-78
2023/01/04 00:04:00;;;;;;;5.70;2.10;;;5.40;99.90;;;;;;4995813;28;20202;-77
2023/01/04 00:06:26;;;;;;;4.30;1.67;;;5.40;99.90;;;;;;4996558;28;20203;-77
2023/01/04 00:08:52;;;;;;;6.83;2.47;;;5.50;99.90;;;;;;4993635;28;20176;-77
2023/01/04 00:11:21;;;;;;;3.00;1.60;;;5.60;99.90;;;;;;4996036;28;20227;-77
2023/01/04 00:13:48;;;;;;;2.87;1.80;;;5.50;99.90;;;;;;4994261;28;20179;-77
2023/01/04 00:16:22;;;;;;;2.70;1.60;;;5.40;99.90;;;;;;4995835;28;20219;-77
2023/01/04 00:18:49;;;;;;;2.70;1.70;;;5.50;99.90;;;;;;4995976;28;20173;-77
2023/01/04 00:21:16;;;;;;;5.00;1.63;;;5.50;99.90;;;;;;4995998;28;20183;-79
2023/01/04 00:23:44;;;;;;;4.10;1.93;;;5.50;99.90;;;;;;4994058;28;20180;-77
2023/01/04 00:26:15;;;;;;;3.23;1.43;;;5.50;99.90;;;;;;5066208;23;20234;-78
2023/01/04 00:28:41;;;;;;;2.27;1.60;;;5.50;99.90;;;;;;5014221;28;20176;-77
2023/01/04 00:31:09;;;;;;;2.97;1.60;;;5.50;99.90;;;;;;5014012;28;20184;-77
2023/01/04 00:33:35;;;;;;;1.97;1.50;;;5.60;99.90;;;;;;5014872;28;20533;-78
2023/01/04 00:36:06;;;;;;;2.73;1.40;;;5.60;99.90;;;;;;5013961;28;20218;-77
2023/01/04 00:38:33;;;;;;;4.03;1.80;;;5.60;99.90;;;;;;5015229;28;20548;-77
2023/01/04 00:40:59;;;;;;;3.10;1.47;;;5.70;99.90;;;;;;5013913;28;20696;-77
2023/01/04 00:43:24;;;;;;;4.10;1.43;;;5.60;99.90;;;;;;5014571;28;20648;-78
2023/01/04 00:45:50;;;;;;;3.03;1.43;;;5.60;99.90;;;;;;5014016;28;20214;-79
2023/01/04 00:48:16;;;;;;;1.93;1.50;;;5.50;99.90;;;;;;5014502;28;20181;-77
2023/01/04 00:50:43;;;;;;;4.33;1.50;;;5.50;99.90;;;;;;5013714;28;20172;-77
2023/01/04 00:53:10;;;;;;;3.37;1.60;;;5.50;99.90;;;;;;5014678;28;20171;-78
2023/01/04 00:55:36;;;;;;;1.83;1.30;;;5.60;99.90;;;;;;5014993;28;20198;-77
2023/01/04 00:58:01;;;;;;;2.97;1.50;;;5.60;99.90;;;;;;5014826;28;20180;-77
2023/01/04 01:00:27;;;;;;;2.77;1.53;;;5.60;99.90;;;;;;5013824;28;20211;-77
2023/01/04 01:02:52;;;;;;;3.90;1.50;;;5.70;99.90;;;;;;5014224;28;20204;-79
2023/01/04 01:05:18;;;;;;;2.23;1.17;;;5.60;99.90;;;;;;5014814;28;20605;-77
2023/01/04 01:07:44;;;;;;;2.63;1.40;;;5.50;99.90;;;;;;5013457;28;20249;-78
2023/01/04 01:10:09;;;;;;;2.80;1.40;;;5.50;99.90;;;;;;5013599;28;20176;-78
2023/01/04 01:12:35;;;;;;;5.67;1.70;;;5.50;99.90;;;;;;5012886;28;20271;-78
2023/01/04 01:15:00;;;;;;;4.40;1.80;;;5.50;99.90;;;;;;5013160;28;20192;-78
2023/01/04 01:17:26;;;;;;;4.47;1.90;;;5.50;99.90;;;;;;5013267;28;20180;-77
2023/01/04 01:19:51;;;;;;;4.83;1.77;;;5.40;99.90;;;;;;5013490;28;20184;-79
2023/01/04 01:22:17;;;;;;;3.80;1.60;;;5.30;99.90;;;;;;5012849;28;20202;-77
2023/01/04 01:24:43;;;;;;;2.63;1.70;;;5.40;99.90;;;;;;5014256;28;20236;-77
2023/01/04 01:27:08;;;;;;;2.33;1.63;;;5.40;99.90;;;;;;5014423;28;20195;-77
2023/01/04 01:29:34;;;;;;;3.10;1.67;;;5.40;99.90;;;;;;5013227;28;20222;-78
2023/01/04 01:31:59;;;;;;;1.67;1.50;;;5.30;99.90;;;;;;5013279;28;20552;-78
2023/01/04 01:34:25;;;;;;;3.40;1.53;;;5.20;99.90;;;;;;5012344;28;20179;-77
2023/01/04 01:36:50;;;;;;;2.37;1.40;;;5.20;99.90;;;;;;5014131;28;20228;-78
2023/01/04 01:39:16;;;;;;;2.90;1.60;;;5.20;99.90;;;;;;5013105;28;20172;-77
2023/01/04 01:41:41;;;;;;;4.03;1.60;;;5.20;99.90;;;;;;5012798;28;20258;-77
2023/01/04 01:44:41;;;;;;;3.90;1.63;;;5.20;99.90;;;;;;5012155;28;20655;-77
2023/01/04 01:47:26;;;;;;;3.33;1.50;;;5.20;99.90;;;;;;5014235;28;20167;-77
2023/01/04 01:49:53;;;;;;;2.90;1.53;;;5.20;99.90;;;;;;5014087;28;20183;-78
2023/01/04 01:52:33;;;;;;;1.27;1.13;;;5.20;99.90;;;;;;5012202;28;20236;-78
2023/01/04 01:55:06;;;;;;;3.67;1.33;;;5.30;99.90;;;;;;5012452;28;20225;-78
2023/01/04 01:57:35;;;;;;;2.13;1.50;;;5.30;99.90;;;;;;5012656;28;20185;-77
2023/01/04 02:00:08;;;;;;;3.03;1.50;;;5.30;99.90;;;;;;5011701;28;20220;-77
2023/01/04 02:02:34;;;;;;;4.20;1.57;;;5.30;99.90;;;;;;5013433;28;20266;-77
2023/01/04 02:05:02;;;;;;;1.77;1.30;;;5.30;99.90;;;;;;5013637;28;20254;-77
2023/01/04 02:07:28;;;;;;;2.60;1.53;;;5.20;99.90;;;;;;5011053;28;20171;-77
2023/01/04 02:09:55;;;;;;;2.60;1.70;;;5.20;99.90;;;;;;5012630;28;20198;-77
2023/01/04 02:12:20;;;;;;;5.83;1.60;;;5.20;99.90;;;;;;5011939;28;20186;-77
2023/01/04 02:14:49;;;;;;;3.97;1.67;;;5.20;99.90;;;;;;5011997;28;20172;-78
2023/01/04 02:17:42;;;;;;;2.10;1.20;;;5.20;99.90;;;;;;5013339;28;20198;-78
2023/01/04 02:20:22;;;;;;;3.40;1.37;;;5.20;99.90;;;;;;5012452;28;20183;-77
2023/01/04 02:23:09;;;;;;;1.63;1.10;;;5.30;99.90;;;;;;5011616;28;20553;-77
2023/01/04 02:26:07;;;;;;;1.90;1.20;;;5.30;99.90;;;;;;5012986;28;20203;-77
2023/01/04 02:28:52;;;;;;;1.40;1.30;;;5.30;99.90;;;;;;5012234;28;20226;-77
2023/01/04 02:31:33;;;;;;;2.83;1.50;;;5.30;99.90;;;;;;5013163;28;20657;-77
2023/01/04 02:34:18;;;;;;;3.50;1.40;;;5.30;99.90;;;;;;5012804;28;20217;-77
2023/01/04 02:37:03;;;;;;;2.00;1.27;;;5.30;99.90;;;;;;5011822;28;20203;-77
2023/01/04 02:39:40;;;;;;;2.63;1.23;;;5.40;99.90;;;;;;5012980;28;20579;-78
2023/01/04 02:42:05;;;;;;;4.93;1.40;;;5.30;99.90;;;;;;5011909;28;20176;-77
2023/01/04 02:44:54;;;;;;;2.37;1.17;;;5.30;99.90;;;;;;5012257;28;20195;-76
2023/01/04 02:50:29;;;;;;;2.13;1.50;;;5.30;99.90;;;;;;5011649;28;20172;-76
2023/01/04 02:50:30;;;;;;;2.90;1.30;;;5.40;99.90;;;;;;5012915;28;20198;-77
2023/01/04 02:53:09;;;;;;;3.47;1.30;;;5.50;99.90;;;;;;5012237;28;20548;-77
2023/01/04 02:56:04;;;;;;;1.57;1.20;;;5.50;99.90;;;;;;5011571;28;20234;-77
2023/01/04 02:58:38;;;;;;;3.07;1.40;;;5.50;99.90;;;;;;5010265;28;20661;-77
2023/01/04 03:07:26;;;;;;;2.70;1.87;;;5.60;99.90;;;;;;5011323;28;20221;-78
2023/01/04 03:10:00;;;;;;;1.70;1.20;;;5.70;99.90;;;;;;5011360;28;20179;-78
2023/01/04 03:12:30;;;;;;;1.30;1.20;;;5.60;99.90;;;;;;5010463;28;20208;-78
2023/01/04 03:15:11;;;;;;;1.80;1.37;;;5.60;99.90;;;;;;5011251;28;20229;-77
2023/01/04 03:17:45;;;;;;;3.47;1.47;;;5.70;99.90;;;;;;5012470;28;20168;-76
2023/01/04 03:20:12;;;;;;;5.03;1.73;;;5.80;99.90;;;;;;5011347;28;20216;-77
2023/01/04 03:37:18;;;;;;;1.83;1.53;;;5.90;99.90;;;;;;5012197;28;20234;-78
2023/01/04 03:49:05;;;;;;;4.00;1.77;;;5.90;99.90;;;;;;5012452;28;20170;-77
2023/01/04 03:51:35;;;;;;;2.13;1.50;;;6.00;99.90;;;;;;5012074;28;20645;-77
2023/01/04 03:54:10;;;;;;;3.40;1.70;;;5.90;99.90;;;;;;5011867;28;20185;-77
2023/01/04 03:56:40;;;;;;;2.30;1.50;;;6.00;99.90;;;;;;5010692;28;20192;-78
2023/01/04 03:59:07;;;;;;;4.37;2.00;;;5.90;99.90;;;;;;5010796;28;20653;-77
2023/01/04 04:01:34;;;;;;;3.30;1.90;;;6.00;99.90;;;;;;5011994;28;20246;-78
2023/01/04 04:09:28;;;;;;;2.87;2.10;;;5.90;99.90;;;;;;5011017;28;20222;-78
2023/01/04 04:11:54;;;;;;;4.83;2.47;;;5.90;99.90;;;;;;5010642;28;20200;-77
2023/01/04 04:14:19;;;;;;;3.87;1.97;;;5.90;99.90;;;;;;5010325;28;20285;-77
2023/01/04 04:16:45;;;;;;;4.03;2.33;;;5.90;99.90;;;;;;5010613;28;20195;-77
2023/01/04 04:19:10;;;;;;;2.53;2.10;;;5.90;99.90;;;;;;5010606;28;20183;-77
2023/01/04 04:21:36;;;;;;;3.73;2.20;;;5.80;99.90;;;;;;5010582;28;20176;-77
2023/01/04 04:24:02;;;;;;;4.23;2.50;;;5.80;99.90;;;;;;5012506;28;20542;-77
2023/01/04 04:26:28;;;;;;;3.90;2.27;;;5.80;99.90;;;;;;5014372;28;20577;-77
2023/01/04 04:28:53;;;;;;;3.93;2.47;;;5.80;99.90;;;;;;5014177;28;20172;-78
2023/01/04 04:31:19;;;;;;;2.97;2.10;;;5.90;99.90;;;;;;5015775;28;20249;-77
2023/01/04 04:33:44;;;;;;;3.37;2.40;;;5.80;99.90;;;;;;5014865;28;20263;-77
2023/01/04 04:36:10;;;;;;;4.37;2.70;;;5.90;99.90;;;;;;5014292;28;20200;-78
2023/01/04 04:38:36;;;;;;;4.37;2.40;;;5.80;99.90;;;;;;5015478;28;20271;-78
2023/01/04 04:43:56;;;;;;;5.10;2.57;;;5.80;99.90;;;;;;5014968;28;20254;-77
2023/01/04 04:46:21;;;;;;;4.47;2.90;;;5.80;99.90;;;;;;5013836;28;20196;-77
2023/01/04 04:48:47;;;;;;;2.93;2.17;;;5.80;99.90;;;;;;5015018;28;20178;-77
2023/01/04 04:51:13;;;;;;;3.90;2.30;;;5.80;99.90;;;;;;5014923;28;20171;-77
2023/01/04 04:53:38;;;;;;;3.80;2.40;;;5.80;99.90;;;;;;5014797;28;20177;-77
2023/01/04 04:56:04;;;;;;;3.13;2.27;;;5.90;99.90;;;;;;5013857;28;20204;-77
2023/01/04 04:58:30;;;;;;;3.07;2.30;;;5.80;99.90;;;;;;5013724;28;20183;-77
2023/01/04 05:00:55;;;;;;;3.67;2.10;;;5.90;99.90;;;;;;5013740;28;20294;-77
2023/01/04 05:03:21;;;;;;;3.43;2.13;;;5.90;99.90;;;;;;5012993;28;20190;-77
2023/01/04 05:05:46;;;;;;;2.57;2.10;;;5.90;99.90;;;;;;5013378;28;20215;-77
2023/01/04 05:08:12;;;;;;;4.43;2.43;;;5.90;99.90;;;;;;5013359;28;20169;-77
2023/01/04 05:10:37;;;;;;;4.93;2.20;;;5.90;99.90;;;;;;5014715;28;20171;-76
2023/01/04 05:13:05;;;;;;;2.60;2.00;;;5.90;99.90;;;;;;5012815;28;20176;-77
2023/01/04 05:15:39;;;;;;;3.83;2.53;;;5.90;99.90;;;;;;5012896;28;20573;-76
2023/01/04 05:18:06;;;;;;;4.17;2.20;;;5.90;99.90;;;;;;5014758;28;20199;-77
2023/01/04 05:20:32;;;;;;;3.20;2.20;;;5.90;99.90;;;;;;5013337;28;20231;-78
2023/01/04 05:22:58;;;;;;;3.97;2.70;;;5.90;99.90;;;;;;5012880;28;20199;-77
2023/01/04 05:25:24;;;;;;;3.97;2.43;;;5.80;99.90;;;;;;5013021;28;20214;-77
2023/01/04 05:27:49;;;;;;;2.93;2.00;;;5.90;99.90;;;;;;5014374;28;20669;-77
2023/01/04 05:33:01;;;;;;;4.30;2.07;;;5.90;99.90;;;;;;5014010;28;20683;-77
2023/01/04 05:35:27;;;;;;;3.70;2.10;;;5.90;99.90;;;;;;5012937;28;20230;-77
2023/01/04 05:37:52;;;;;;;3.90;2.00;;;5.90;99.90;;;;;;5013454;28;20179;-78
2023/01/04 05:40:18;;;;;;;3.20;2.17;;;5.90;99.90;;;;;;5014416;28;20213;-78
2023/01/04 05:42:44;;;;;;;2.80;2.10;;;5.90;99.90;;;;;;5012351;28;20662;-78
2023/01/04 05:45:10;;;;;;;3.33;2.10;;;5.90;99.90;;;;;;5014117;28;20218;-78
2023/01/04 05:47:36;;;;;;;4.67;2.07;;;5.80;99.90;;;;;;5012771;28;20217;-77
2023/01/04 05:50:02;;;;;;;4.53;2.07;;;5.90;99.90;;;;;;5013097;28;20183;-78
2023/01/04 05:52:28;;;;;;;4.67;1.93;;;5.90;99.90;;;;;;5012585;28;20270;-78
2023/01/04 05:54:54;;;;;;;3.63;2.10;;;5.90;99.90;;;;;;5013684;28;20293;-78
2023/01/04 05:57:19;;;;;;;2.93;2.27;;;5.80;99.90;;;;;;5013691;28;20187;-79
2023/01/04 05:59:45;;;;;;;8.40;2.50;;;5.80;99.90;;;;;;5013470;28;20233;-79
2023/01/04 06:02:17;;;;;;;4.73;2.30;;;5.80;99.90;;;;;;5012705;28;20222;-78
2023/01/04 06:04:43;;;;;;;3.00;1.80;;;5.80;99.90;;;;;;5013771;28;20665;-78
2023/01/04 06:07:09;;;;;;;4.10;2.33;;;5.80;99.90;;;;;;5012464;28;20172;-76
2023/01/04 06:09:34;;;;;;;2.60;1.90;;;5.80;99.90;;;;;;5013696;28;20221;-78
2023/01/04 06:12:00;;;;;;;3.27;2.00;;;5.80;99.90;;;;;;5012651;28;20190;-78
2023/01/04 06:14:25;;;;;;;4.87;2.07;;;5.80;99.90;;;;;;5012255;28;20179;-78
2023/01/04 06:16:51;;;;;;;3.40;1.70;;;5.70;99.90;;;;;;5012441;28;20677;-78
2023/01/04 06:19:16;;;;;;;2.43;1.97;;;5.80;99.90;;;;;;5012483;28;20613;-78
2023/01/04 06:21:42;;;;;;;3.40;1.83;;;5.70;99.90;;;;;;5012467;28;20179;-79
2023/01/04 06:24:09;;;;;;;2.50;1.97;;;5.80;99.90;;;;;;5011670;28;20176;-79
2023/01/04 06:26:35;;;;;;;6.07;1.83;;;5.80;99.90;;;;;;5037769;23;20265;-77
2023/01/04 06:29:00;;;;;;;3.13;1.70;;;5.80;99.90;;;;;;5013300;28;20199;-77
2023/01/04 06:31:26;;;;;;;5.90;2.03;;;5.80;99.90;;;;;;5013061;28;20227;-77
2023/01/04 06:33:52;;;;;;;4.30;2.10;;;5.90;99.90;;;;;;5011339;28;20182;-77
2023/01/04 06:36:17;;;;;;;2.93;1.70;;;5.90;99.90;;;;;;5011899;28;20709;-77
2023/01/04 06:38:43;;;;;;;3.07;1.93;;;5.90;99.90;;;;;;5013351;28;20179;-79
2023/01/04 06:41:08;;;;;;;3.60;1.63;;;5.90;99.90;;;;;;5011930;28;20225;-76
2023/01/04 06:43:34;;;;;;;4.17;1.70;;;6.00;99.90;;;;;;5011391;28;20642;-76
2023/01/04 06:46:00;;;;;;;3.50;2.10;;;6.00;99.90;;;;;;5012370;28;20254;-76
2023/01/04 06:48:26;;;;;;;2.80;2.03;;;6.00;99.90;;;;;;5012671;28;20174;-76
2023/01/04 06:50:51;;;;;;;2.40;1.80;;;6.00;99.90;;;;;;5011886;28;20190;-77
2023/01/04 06:53:17;;;;;;;4.00;1.90;;;6.00;99.90;;;;;;5012274;28;20203;-77
2023/01/04 06:55:43;;;;;;;3.17;1.80;;;5.90;99.90;;;;;;5012879;28;20202;-77
2023/01/04 06:58:09;;;;;;;3.80;2.00;;;5.90;99.90;;;;;;5011804;28;20179;-77
2023/01/04 07:00:35;;;;;;;3.13;1.90;;;5.90;99.90;;;;;;5011491;28;20178;-77
2023/01/04 07:03:00;;;;;;;3.33;2.00;;;6.00;99.90;;;;;;5011153;28;20214;-77
2023/01/04 07:05:26;;;;;;;2.43;1.87;;;6.00;99.90;;;;;;5011571;28;20318;-78
2023/01/04 07:07:51;;;;;;;3.53;1.87;;;6.00;99.90;;;;;;5011387;28;20549;-76
2023/01/04 07:10:17;;;;;;;2.20;1.93;;;6.00;99.90;;;;;;5012701;28;20235;-78
2023/01/04 07:12:43;;;;;;;2.43;2.10;;;6.10;99.90;;;;;;5012015;28;20171;-78
2023/01/04 07:15:09;;;;;;;2.60;1.97;;;6.20;99.90;;;;;;5011296;28;20171;-78
2023/01/04 07:17:34;;;;;;;4.40;2.20;;;6.20;99.90;;;;;;5012426;28;20259;-79
2023/01/04 07:20:00;;;;;;;2.50;2.13;;;6.20;99.90;;;;;;5012622;28;20275;-78
2023/01/04 07:22:25;;;;;;;5.10;2.30;;;6.30;99.90;;;;;;5011897;28;20177;-78
2023/01/04 07:24:51;;;;;;;3.63;2.17;;;6.20;99.90;;;;;;5012372;28;20568;-79
2023/01/04 07:27:16;;;;;;;2.27;1.77;;;6.20;99.90;;;;;;5011133;28;20218;-78
2023/01/04 07:29:43;;;;;;;3.53;2.00;;;6.20;99.90;;;;;;5011246;28;20174;-78
2023/01/04 07:32:09;;;;;;;2.83;2.10;;;6.30;99.90;;;;;;5011132;28;20581;-77
2023/01/04 07:34:36;;;;;;;3.33;2.07;;;6.20;99.90;;;;;;5011859;28;20202;-80
2023/01/04 07:37:04;;;;;;;3.43;2.10;;;6.20;99.90;;;;;;5011054;28;20762;-78
2023/01/04 07:39:29;;;;;;;3.20;2.03;;;6.20;99.90;;;;;;5011173;28;20175;-80
2023/01/04 07:41:55;;;;;;;3.13;2.20;;;6.20;99.90;;;;;;5010927;28;20548;-79
2023/01/04 07:44:20;;;;;;;3.03;2.10;;;6.20;99.90;;;;;;5011577;28;20249;-79
2023/01/04 07:46:46;;;;;;;3.87;2.10;;;6.20;99.90;;;;;;5012656;28;20190;-79
2023/01/04 07:49:15;;;;;;;4.13;2.30;;;6.20;99.90;;;;;;5011595;28;20178;-80
2023/01/04 07:51:40;;;;;;;3.60;2.20;;;6.20;99.90;;;;;;5012379;28;20186;-79
2023/01/04 07:54:06;;;;;;;4.10;2.70;;;6.20;99.90;;;;;;5012493;28;20175;-76
2023/01/04 07:56:32;;;;;;;3.43;2.20;;;6.20;99.90;;;;;;5014561;28;20672;-78
2023/01/04 07:58:58;;;;;;;4.03;2.60;;;6.20;99.90;;;;;;5014340;28;20172;-79
2023/01/04 08:01:25;;;;;;;5.50;2.40;;;6.30;99.90;;;;;;5019006;28;20170;-80
2023/01/04 08:03:51;;;;;;;5.10;2.80;;;6.30;99.90;;;;;;5017306;28;20173;-81
2023/01/04 08:06:18;;;;;;;2.87;2.53;;;6.30;99.90;;;;;;5018864;28;20210;-80
2023/01/04 08:08:44;;;;;;;3.67;2.63;;;6.30;99.90;;;;;;5017511;28;20196;-80
2023/01/04 08:11:13;;;;;;;4.87;3.10;;;6.30;99.90;;;;;;5017691;28;20640;-80
2023/01/04 08:13:40;;;;;;;4.73;2.83;;;6.20;99.90;;;;;;5015162;28;20167;-82
2023/01/04 08:16:06;;;;;;;4.37;2.90;;;6.30;99.90;;;;;;5016150;28;20671;-78
2023/01/04 08:18:32;;;;;;;3.97;2.63;;;6.20;99.90;;;;;;5015867;28;20213;-79
2023/01/04 08:21:08;;;;;;;3.43;2.80;;;6.20;99.90;;;;;;5016760;28;20245;-81
2023/01/04 08:23:35;;;;;;;4.03;2.50;;;6.20;99.90;;;;;;5015475;28;20179;-79
2023/01/04 08:26:10;;;;;;;3.60;2.80;;;6.20;99.90;;;;;;5014153;28;20215;-78
2023/01/04 08:28:35;;;;;;;4.50;2.77;;;6.20;99.90;;;;;;5014446;28;20190;-78
2023/01/04 08:31:07;;;;;;;3.50;2.57;;;6.20;99.90;;;;;;5022084;28;20175;-79
2023/01/04 08:33:34;;;;;;;3.80;2.80;;;6.20;99.90;;;;;;5025357;28;20170;-78
2023/01/04 08:36:19;;;;;;;5.13;3.27;;;6.20;99.90;;;;;;5029230;28;20256;-81
2023/01/04 08:38:53;;;;;;;6.00;3.40;;;6.20;99.90;;;;;;5023641;28;20715;-79
2023/01/04 08:41:19;;;;;;;3.83;2.77;;;6.20;99.90;;;;;;5014033;28;20222;-78
2023/01/04 08:43:45;;;;;;;4.90;2.90;;;6.20;99.90;;;;;;5031970;28;20199;-79
2023/01/04 08:46:12;;;;;;;5.87;3.03;;;6.30;99.90;;;;;;5028432;28;20310;-79
2023/01/04 08:48:38;;;;;;;5.23;3.10;;;6.30;99.90;;;;;;5016037;28;20178;-79
2023/01/04 08:51:07;;;;;;;3.30;2.67;;;6.30;99.90;;;;;;5014496;28;20182;-78
2023/01/04 08:53:32;;;;;;;4.47;3.20;;;6.30;99.90;;;;;;5013931;28;20177;-78
2023/01/04 08:55:59;;;;;;;4.33;3.40;;;6.30;99.90;;;;;;5015537;28;20234;-78
2023/01/04 08:58:27;;;;;;;4.63;3.10;;;6.30;99.90;;;;;;5015740;28;20183;-78
2023/01/04 09:00:53;;;;;;;3.93;2.87;;;6.30;99.90;;;;;;5014615;28;20576;-79
2023/01/04 09:03:18;;;;;;;4.97;3.40;;;6.30;99.90;;;;;;5014467;28;20689;-78
2023/01/04 09:05:44;;;;;;;5.00;3.10;;;6.30;99.90;;;;;;5003820;28;20213;-79
2023/01/04 09:08:10;;;;;;;5.03;3.40;;;6.30;99.90;;;;;;4994753;28;20225;-78
2023/01/04 09:10:37;;;;;;;3.20;2.70;;;6.30;99.90;;;;;;4994050;28;20178;-78
2023/01/04 09:13:03;;;;;;;5.67;3.00;;;6.40;99.90;;;;;;4995226;28;20178;-76
2023/01/04 09:15:29;;;;;;;3.13;2.83;;;6.30;99.90;;;;;;4995674;28;20538;-79
2023/01/04 09:17:54;;;;;;;3.67;2.80;;;6.30;99.90;;;;;;4994505;28;20232;-78
2023/01/04 09:20:20;;;;;;;3.53;2.80;;;6.40;99.90;;;;;;4994473;28;20650;-79
2023/01/04 09:22:45;;;;;;;3.30;2.80;;;6.40;99.90;;;;;;4993806;28;20177;-79
2023/01/04 09:25:11;;;;;;;3.77;3.10;;;6.40;99.90;;;;;;4995557;28;20679;-78
2023/01/04 09:27:38;;;;;;;4.97;3.10;;;6.40;99.90;;;;;;4995645;28;20178;-79
2023/01/04 09:30:05;;;;;;;4.37;2.90;;;6.40;99.90;;;;;;4996042;28;20200;-78
2023/01/04 09:32:30;;;;;;;5.60;2.87;;;6.50;99.90;;;;;;4995622;28;20175;-79
2023/01/04 09:34:56;;;;;;;7.63;3.10;;;6.50;99.90;;;;;;4995424;28;20182;-80
2023/01/04 09:37:21;;;;;;;4.67;2.90;;;6.40;99.90;;;;;;4994963;28;20202;-78
2023/01/04 09:39:47;;;;;;;4.60;2.97;;;6.50;99.90;;;;;;4995569;28;20217;-78
2023/01/04 09:42:35;;;;;;;4.13;3.13;;;6.50;99.90;;;;;;4996928;28;20179;-79
2023/01/04 09:45:22;;;;;;;5.10;3.20;;;6.50;99.90;;;;;;4994847;28;20198;-78
2023/01/04 09:47:58;;;;;;;5.90;2.97;;;6.50;99.90;;;;;;4995081;28;20182;-77
2023/01/04 09:50:36;;;;;;;3.07;2.10;;;6.50;99.90;;;;;;4993562;28;20241;-78
2023/01/04 09:53:04;;;;;;;20.47;7.27;;;6.50;99.90;;;;;;4993261;28;20175;-81
2023/01/04 09:55:46;;;;;;;6.47;3.70;;;6.50;99.90;;;;;;4995020;28;20201;-79
2023/01/04 09:58:21;;;;;;;8.33;3.80;;;6.50;99.90;;;;;;4993560;28;20179;-80
2023/01/04 10:00:54;;;;;;;6.07;2.80;;;6.60;99.90;;;;;;4995015;28;20185;-78
2023/01/04 10:03:35;;;;;;;5.93;2.50;;;6.60;99.90;;;;;;4995063;28;20201;-79
2023/01/04 10:06:02;;;;;;;4.33;2.20;;;6.60;99.90;;;;;;4993720;28;20234;-82
2023/01/04 10:08:30;;;;;;;3.47;2.60;;;6.60;99.90;;;;;;4995170;28;20183;-80
2023/01/04 10:11:31;;;;;;;3.77;2.70;;;6.60;99.90;;;;;;4993915;28;20182;-80
2023/01/04 10:14:26;;;;;;;3.23;2.50;;;6.60;99.90;;;;;;4993329;28;20204;-79
2023/01/04 10:17:14;;;;;;;4.40;2.73;;;6.60;99.90;;;;;;4994972;28;20193;-80
2023/01/04 10:20:07;;;;;;;3.40;3.10;;;6.60;99.90;;;;;;4984281;28;20237;-79
2023/01/04 10:23:17;;;;;;;3.93;2.90;;;6.60;99.90;;;;;;4992520;28;20178;-79
2023/01/04 10:25:44;;;;;;;3.50;2.50;;;6.60;99.90;;;;;;4925247;28;20325;-80
2023/01/04 10:28:49;;;;;;;3.10;2.60;;;6.60;99.90;;;;;;4994737;28;20270;-79
2023/01/04 10:31:20;;;;;;;3.63;2.90;;;6.60;99.90;;;;;;4993804;28;20622;-80
2023/01/04 10:34:01;;;;;;;3.73;2.87;;;6.60;99.90;;;;;;4992743;28;20183;-79
2023/01/04 10:36:32;;;;;;;5.20;3.47;;;6.60;99.90;;;;;;4993260;28;20559;-79
2023/01/04 10:39:01;;;;;;;3.70;2.80;;;6.70;99.90;;;;;;4994573;28;20159;-79
2023/01/04 10:41:35;;;;;;;5.33;2.97;;;6.70;99.90;;;;;;4994450;28;20186;-79
2023/01/04 10:44:23;;;;;;;3.60;3.10;;;6.70;99.90;;;;;;4992709;28;20254;-79
2023/01/04 10:46:55;;;;;;;3.13;2.53;;;6.80;99.90;;;;;;4993013;28;20195;-79
2023/01/04 10:49:43;;;;;;;3.87;2.63;;;6.80;99.90;;;;;;4994211;28;20155;-79
2023/01/04 10:52:18;;;;;;;3.90;2.80;;;6.80;99.90;;;;;;4994369;28;20178;-79
2023/01/04 10:55:10;;;;;;;4.70;2.73;;;6.80;99.90;;;;;;4992868;28;20232;-79
2023/01/04 10:57:49;;;;;;;2.93;2.63;;;6.90;99.90;;;;;;4993772;28;20230;-79
2023/01/04 11:00:26;;;;;;;3.67;2.30;;;6.90;99.90;;;;;;4994260;28;20170;-79
2023/01/04 11:03:13;;;;;;;2.73;2.23;;;6.90;99.90;;;;;;4993743;28;20171;-79
2023/01/04 11:05:49;;;;;;;3.13;2.30;;;6.90;99.90;;;;;;4994084;28;20208;-79
2023/01/04 11:08:35;;;;;;;2.97;2.30;;;6.90;99.90;;;;;;4994279;28;20158;-79
2023/01/04 11:11:09;;;;;;;3.30;2.30;;;6.90;99.90;;;;;;4993937;28;20182;-79
2023/01/04 11:13:35;;;;;;;3.33;2.70;;;6.90;99.90;;;;;;4993452;28;20196;-79
2023/01/04 11:16:04;;;;;;;3.00;2.70;;;7.00;99.90;;;;;;4992643;28;20194;-79
2023/01/04 11:18:31;;;;;;;3.20;2.30;;;7.00;99.90;;;;;;4992635;28;20226;-80
2023/01/04 11:20:57;;;;;;;3.60;2.70;;;7.00;99.90;;;;;;4992550;28;20182;-79
2023/01/04 11:23:24;;;;;;;5.00;2.80;;;7.00;99.90;;;;;;4992239;28;20185;-79
2023/01/04 11:25:59;;;;;;;3.20;2.80;;;7.00;99.90;;;;;;4992425;28;20218;-79
2023/01/04 11:28:42;;;;;;;3.13;2.83;;;7.00;99.90;;;;;;4992834;28;20178;-80
2023/01/04 11:31:10;;;;;;;4.07;2.70;;;7.10;99.90;;;;;;4992259;28;20303;-78
2023/01/04 11:33:56;;;;;;;3.33;2.47;;;7.00;99.90;;;;;;4992981;28;20171;-79
2023/01/04 11:36:31;;;;;;;3.63;2.60;;;7.00;99.90;;;;;;4991615;28;20260;-79
2023/01/04 11:38:57;;;;;;;3.10;2.73;;;7.10;99.90;;;;;;4992046;28;20200;-79
2023/01/04 11:41:23;;;;;;;3.63;2.83;;;7.10;99.90;;;;;;4991934;28;20239;-79
2023/01/04 11:43:56;;;;;;;4.93;3.00;;;7.10;99.90;;;;;;4992825;28;20251;-79
2023/01/04 11:46:23;;;;;;;2.93;2.63;;;7.10;99.90;;;;;;4994974;28;20213;-80
2023/01/04 11:48:50;;;;;;;3.60;2.93;;;7.10;99.90;;;;;;5012702;28;20222;-79
2023/01/04 11:51:28;;;;;;;3.50;3.00;;;7.20;99.90;;;;;;5012334;28;20174;-78
2023/01/04 11:53:58;;;;;;;3.97;3.53;;;7.10;99.90;;;;;;5028619;28;20215;-78
2023/01/04 11:56:25;;;;;;;3.73;3.43;;;7.10;99.90;;;;;;5033002;28;20196;-78
2023/01/04 11:59:16;;;;;;;3.43;2.97;;;7.20;99.90;;;;;;5033179;28;20182;-79
2023/01/04 12:01:48;;;;;;;3.33;3.03;;;7.20;99.90;;;;;;5033458;28;20662;-79
2023/01/04 12:04:23;;;;;;;3.20;2.73;;;7.20;99.90;;;;;;5032673;28;20178;-79
2023/01/04 12:07:05;;;;;;;3.30;2.80;;;7.20;99.90;;;;;;5031785;28;20196;-79
2023/01/04 12:09:31;;;;;;;2.70;2.20;;;7.20;99.90;;;;;;5031691;28;20191;-80
2023/01/04 12:12:00;;;;;;;3.90;2.40;;;7.50;99.90;;;;;;5032667;28;20174;-80
2023/01/04 12:14:28;;;;;;;5.77;2.50;;;7.40;99.90;;;;;;5032434;28;20180;-80
2023/01/04 12:17:12;;;;;;;3.13;2.53;;;7.40;99.90;;;;;;5031806;28;20283;-80
2023/01/04 12:19:40;;;;;;;3.00;2.30;;;7.50;99.90;;;;;;5031710;28;20727;-80
2023/01/04 12:22:22;;;;;;;3.57;2.53;;;7.50;99.90;;;;;;5031659;28;20523;-80
2023/01/04 12:24:48;;;;;;;3.10;2.50;;;7.50;99.90;;;;;;5032078;28;20224;-80
2023/01/04 12:27:14;;;;;;;2.80;2.27;;;7.50;99.90;;;;;;5054487;22;20221;-80
2023/01/04 12:29:52;;;;;;;4.03;2.60;;;7.50;99.90;;;;;;5032664;28;20185;-78
2023/01/04 12:32:18;;;;;;;2.87;2.40;;;7.60;99.90;;;;;;5030991;28;20166;-79
2023/01/04 12:34:45;;;;;;;3.13;2.30;;;7.90;99.90;;;;;;5031036;28;20557;-79
2023/01/04 12:37:39;;;;;;;3.00;2.50;;;7.80;99.90;;;;;;5032240;28;20271;-77
2023/01/04 12:40:43;;;;;;;3.57;2.63;;;7.70;99.90;;;;;;5030565;28;20174;-77
2023/01/04 12:43:14;;;;;;;4.53;2.70;;;7.60;99.90;;;;;;4935255;29;20184;-76
2023/01/04 12:45:41;;;;;;;4.30;2.80;;;7.60;99.90;;;;;;4954215;28;20258;-78
2023/01/04 12:51:23;;;;;;;2.90;2.60;;;7.60;99.90;;;;;;5035471;28;20169;-77
2023/01/04 12:53:53;;;;;;;2.63;2.43;;;7.60;99.90;;;;;;5034165;28;20170;-77
2023/01/04 12:56:18;;;;;;;4.70;2.90;;;7.60;99.90;;;;;;5036460;28;20198;-79
2023/01/04 12:59:06;;;;;;;6.07;2.70;;;7.70;99.90;;;;;;5034503;28;20616;-79
2023/01/04 13:01:32;;;;;;;9.17;4.20;;;7.70;99.90;;;;;;5035756;28;20178;-79
2023/01/04 13:04:02;;;;;;;2.90;2.60;;;7.70;99.90;;;;;;5033906;28;20177;-80
2023/01/04 13:06:30;;;;;;;4.13;2.97;;;7.60;99.90;;;;;;5035524;28;20214;-79
2023/01/04 13:08:57;;;;;;;3.67;2.67;;;7.50;99.90;;;;;;5034569;28;20651;-79
2023/01/04 13:11:32;;;;;;;3.10;2.80;;;7.60;99.90;;;;;;5035572;28;20174;-79
2023/01/04 13:14:12;;;;;;;3.70;2.80;;;7.60;99.90;;;;;;5033768;28;20176;-79
2023/01/04 13:17:00;;;;;;;5.03;2.60;;;7.60;99.90;;;;;;5026104;28;20205;-79
2023/01/04 13:19:28;;;;;;;3.53;2.70;;;7.60;99.90;;;;;;4994699;28;20171;-79
2023/01/04 13:21:54;;;;;;;4.10;2.40;;;7.50;99.90;;;;;;4994873;28;20329;-79
2023/01/04 13:24:19;;;;;;;3.03;2.53;;;7.60;99.90;;;;;;4995411;28;20168;-79
2023/01/04 13:26:47;;;;;;;2.70;2.50;;;7.60;99.90;;;;;;4995256;28;20221;-79
2023/01/04 13:29:18;;;;;;;2.67;2.20;;;7.50;99.90;;;;;;4994702;28;20189;-80
2023/01/04 13:31:49;;;;;;;2.60;2.20;;;7.50;99.90;;;;;;4995856;28;20174;-79
2023/01/04 13:34:23;;;;;;;3.27;2.30;;;7.50;99.90;;;;;;4995383;28;20190;-79
2023/01/04 13:37:06;;;;;;;3.03;2.40;;;7.50;99.90;;;;;;4997449;28;20208;-80
2023/01/04 13:39:32;;;;;;;3.87;2.50;;;7.50;99.90;;;;;;5014359;28;20243;-79
2023/01/04 13:41:58;;;;;;;3.03;2.63;;;7.50;99.90;;;;;;5015127;28;20248;-79
2023/01/04 13:44:58;;;;;;;2.53;2.07;;;7.50;99.90;;;;;;5014536;28;20186;-79
2023/01/04 13:47:24;;;;;;;3.10;1.93;;;7.50;99.90;;;;;;5028582;28;20198;-79
2023/01/04 13:49:49;;;;;;;3.53;2.40;;;7.50;99.90;;;;;;5034133;28;20548;-79
2023/01/04 13:52:26;;;;;;;3.30;2.20;;;7.50;99.90;;;;;;5014449;28;20309;-79
2023/01/04 13:55:18;;;;;;;2.57;2.00;;;7.60;99.90;;;;;;5013724;28;20206;-79
2023/01/04 13:57:57;;;;;;;2.63;1.90;;;7.60;99.90;;;;;;5013604;28;20209;-79
2023/01/04 14:00:25;;;;;;;2.83;1.87;;;7.60;99.90;;;;;;5015054;28;20185;-79